Wetterdaten: Woche 08.06.09 - 14.06.09 (KW24)
Datum Zeit Temp. A. Feuchte A. Luftdruck Regen Wind Richtung Taupunkt Windchill Windben
08.06.2009 00:00 11,7 C 88 % 1009,0 hPa 0,0 l/m 0,0 km/h N 9,8 C 11,7 C 0,4 km/h
08.06.2009 01:00 10,6 C 91 % 1009,5 hPa 0,0 l/m 0,0 km/h N 9,1 C 10,6 C 0,0 km/h
08.06.2009 02:00 10,1 C 92 % 1010,0 hPa 0,0 l/m 0,0 km/h N 8,8 C 10,1 C 0,8 km/h
08.06.2009 03:00 10,9 C 92 % 1010,9 hPa 0,0 l/m 0,3 km/h W-SW 9,6 C 10,9 C 3,2 km/h
08.06.2009 04:00 13,5 C 81 % 1011,4 hPa 0,0 l/m 0,8 km/h S-SW 10,3 C 13,5 C 7,7 km/h
08.06.2009 05:00 12,8 C 82 % 1012,0 hPa 0,0 l/m 0,0 km/h N 9,8 C 12,8 C 1,6 km/h
08.06.2009 06:00 14,3 C 78 % 1012,2 hPa 0,0 l/m 0,4 km/h SW 10,5 C 14,3 C 3,2 km/h
08.06.2009 07:00 16,7 C 67 % 1012,5 hPa 0,0 l/m 1,3 km/h SW 10,4 C 16,7 C 5,2 km/h
08.06.2009 08:00 17,4 C 66 % 1013,2 hPa 0,0 l/m 0,0 km/h N 11,1 C 17,4 C 1,6 km/h
08.06.2009 09:00 19,2 C 58 % 1013,2 hPa 0,0 l/m 1,3 km/h N-NW 10,7 C 19,2 C 5,6 km/h
08.06.2009 10:00 20,2 C 48 % 1013,1 hPa 0,0 l/m 1,6 km/h N 8,8 C 20,2 C 6,4 km/h
08.06.2009 11:00 21,4 C 45 % 1012,9 hPa 0,0 l/m 0,9 km/h N-NO 9,1 C 21,4 C 4,0 km/h
08.06.2009 12:00 22,2 C 48 % 1012,7 hPa 0,0 l/m 1,5 km/h O 10,6 C 22,2 C 5,3 km/h
08.06.2009 13:00 23,2 C 46 % 1012,5 hPa 0,0 l/m 1,8 km/h N-NO 10,8 C 23,2 C 8,0 km/h
08.06.2009 14:00 23,3 C 47 % 1012,0 hPa 0,0 l/m 1,8 km/h O-SO 11,3 C 23,3 C 10,9 km/h
08.06.2009 15:00 23,6 C 47 % 1011,5 hPa 0,0 l/m 1,9 km/h O-SO 11,6 C 23,6 C 8,0 km/h
08.06.2009 16:00 23,1 C 49 % 1011,1 hPa 0,0 l/m 1,5 km/h O-SO 11,7 C 23,1 C 6,4 km/h
08.06.2009 17:00 22,1 C 56 % 1010,8 hPa 0,0 l/m 1,5 km/h O 12,9 C 22,1 C 5,6 km/h
08.06.2009 18:00 22,6 C 58 % 1010,3 hPa 0,0 l/m 1,6 km/h O 13,8 C 22,6 C 6,0 km/h
08.06.2009 19:00 22,4 C 58 % 1010,2 hPa 0,0 l/m 0,8 km/h N 13,7 C 22,4 C 5,2 km/h
08.06.2009 20:00 21,1 C 63 % 1010,5 hPa 0,0 l/m 0,5 km/h N 13,7 C 21,1 C 3,2 km/h
08.06.2009 21:00 19,5 C 69 % 1010,7 hPa 0,0 l/m 0,1 km/h N 13,7 C 19,5 C 1,2 km/h
08.06.2009 22:00 18,7 C 74 % 1010,7 hPa 0,0 l/m 0,0 km/h N 13,9 C 18,7 C 1,2 km/h
08.06.2009 23:00 17,9 C 76 % 1010,5 hPa 0,0 l/m 0,1 km/h N 13,6 C 17,9 C 2,0 km/h
09.06.2009 00:00 15,7 C 84 % 1010,1 hPa 0,0 l/m 0,0 km/h N 13,0 C 15,7 C 0,8 km/h
09.06.2009 01:00 14,8 C 87 % 1009,8 hPa 0,0 l/m 0,0 km/h N 12,7 C 14,8 C 0,4 km/h
09.06.2009 02:00 14,3 C 89 % 1009,5 hPa 0,0 l/m 0,0 km/h N 12,5 C 14,3 C 0,0 km/h
09.06.2009 03:00 13,1 C 90 % 1009,2 hPa 0,0 l/m 0,0 km/h N 11,6 C 13,1 C 0,0 km/h
09.06.2009 04:00 12,6 C 92 % 1008,9 hPa 0,0 l/m 0,0 km/h N 11,3 C 12,6 C 1,2 km/h
09.06.2009 05:00 12,8 C 92 % 1008,8 hPa 0,3 l/m 0,0 km/h N 11,6 C 12,8 C 1,2 km/h
09.06.2009 06:00 15,5 C 89 % 1008,8 hPa 0,0 l/m 0,2 km/h N 13,6 C 15,5 C 2,0 km/h
09.06.2009 07:00 18,0 C 76 % 1008,7 hPa 0,0 l/m 1,5 km/h SW 13,6 C 18,0 C 7,6 km/h
09.06.2009 08:00 19,8 C 69 % 1008,5 hPa 0,0 l/m 1,2 km/h W-SW 13,8 C 19,8 C 7,6 km/h
09.06.2009 09:00 22,0 C 60 % 1008,3 hPa 0,0 l/m 0,9 km/h SW 13,9 C 22,0 C 7,6 km/h
09.06.2009 10:00 24,5 C 49 % 1008,1 hPa 0,0 l/m 1,8 km/h S 13,0 C 24,5 C 9,3 km/h
09.06.2009 11:00 26,3 C 45 % 1008,0 hPa 0,0 l/m 1,8 km/h O 13,2 C 26,3 C 8,1 km/h
09.06.2009 12:00 27,9 C 42 % 1007,9 hPa 0,0 l/m 2,0 km/h O 13,7 C 27,9 C 9,7 km/h
09.06.2009 13:00 28,9 C 38 % 1007,7 hPa 0,0 l/m 3,5 km/h W-NW 13,1 C 28,9 C 15,7 km/h
09.06.2009 14:00 29,3 C 39 % 1007,7 hPa 0,0 l/m 2,4 km/h O 14,0 C 29,3 C 9,7 km/h
09.06.2009 15:00 28,5 C 39 % 1008,0 hPa 0,0 l/m 2,6 km/h NW 13,2 C 28,5 C 8,4 km/h
09.06.2009 16:00 26,7 C 46 % 1008,6 hPa 0,0 l/m 2,9 km/h N-NW 14,0 C 26,7 C 8,0 km/h
09.06.2009 17:00 26,4 C 46 % 1009,1 hPa 0,0 l/m 1,5 km/h SO 13,9 C 26,4 C 8,1 km/h
09.06.2009 18:00 25,4 C 49 % 1009,5 hPa 0,0 l/m 0,9 km/h N-NW 13,9 C 25,4 C 7,2 km/h
09.06.2009 19:00 24,2 C 54 % 1010,3 hPa 0,0 l/m 0,9 km/h NW 14,4 C 24,2 C 5,2 km/h
09.06.2009 20:00 23,3 C 55 % 1010,7 hPa 0,0 l/m 0,9 km/h S-SW 13,8 C 23,3 C 6,8 km/h
09.06.2009 21:00 22,1 C 59 % 1011,2 hPa 0,0 l/m 0,9 km/h SW 13,6 C 22,1 C 6,8 km/h
09.06.2009 22:00 21,0 C 63 % 1011,6 hPa 0,0 l/m 2,2 km/h S-SO 13,6 C 21,0 C 13,3 km/h
09.06.2009 23:00 20,7 C 61 % 1011,8 hPa 0,0 l/m 2,5 km/h S 12,8 C 20,7 C 11,3 km/h
10.06.2009 00:00 20,1 C 65 % 1011,8 hPa 0,0 l/m 2,2 km/h S 13,3 C 20,1 C 10,9 km/h
10.06.2009 01:00 19,4 C 70 % 1012,4 hPa 0,0 l/m 2,7 km/h N-NW 13,7 C 19,4 C 10,1 km/h
10.06.2009 02:00 19,1 C 70 % 1012,7 hPa 0,0 l/m 2,2 km/h SW 13,5 C 19,1 C 8,4 km/h
10.06.2009 03:00 19,2 C 68 % 1012,9 hPa 0,0 l/m 1,4 km/h S 13,0 C 19,2 C 10,5 km/h
10.06.2009 04:00 18,7 C 71 % 1013,5 hPa 0,0 l/m 1,7 km/h N-NO 13,3 C 18,7 C 7,2 km/h
10.06.2009 05:00 17,9 C 78 % 1014,2 hPa 0,0 l/m 1,5 km/h NW 13,9 C 17,9 C 6,0 km/h
10.06.2009 06:00 18,0 C 75 % 1014,5 hPa 0,0 l/m 1,6 km/h NW 13,4 C 18,0 C 6,8 km/h
10.06.2009 07:00 18,0 C 69 % 1015,3 hPa 0,0 l/m 2,1 km/h S 12,2 C 18,0 C 10,1 km/h
10.06.2009 08:00 17,8 C 68 % 1016,0 hPa 0,0 l/m 1,9 km/h SW 11,7 C 17,8 C 10,5 km/h
10.06.2009 09:00 17,5 C 73 % 1016,5 hPa 0,6 l/m 1,3 km/h S 12,5 C 17,5 C 7,2 km/h
10.06.2009 10:00 17,5 C 73 % 1016,8 hPa 0,0 l/m 1,6 km/h W 12,5 C 17,5 C 7,2 km/h
10.06.2009 11:00 18,9 C 69 % 1017,0 hPa 0,0 l/m 2,3 km/h S-SW 13,0 C 18,9 C 10,9 km/h
10.06.2009 12:00 20,3 C 62 % 1016,9 hPa 0,0 l/m 2,7 km/h N-NW 12,7 C 20,3 C 8,9 km/h
10.06.2009 13:00 21,0 C 57 % 1016,7 hPa 0,0 l/m 3,7 km/h NW 12,3 C 21,0 C 10,9 km/h
10.06.2009 14:00 21,1 C 55 % 1016,7 hPa 0,0 l/m 3,4 km/h NW 11,7 C 21,1 C 9,7 km/h
10.06.2009 15:00 21,0 C 55 % 1016,9 hPa 0,0 l/m 1,7 km/h S 11,6 C 21,0 C 8,4 km/h
10.06.2009 16:00 20,2 C 58 % 1016,6 hPa 0,0 l/m 1,3 km/h N 11,7 C 20,2 C 5,6 km/h
10.06.2009 17:00 20,1 C 61 % 1016,4 hPa 0,0 l/m 0,7 km/h W-SW 12,2 C 20,1 C 5,2 km/h
10.06.2009 18:00 20,0 C 64 % 1016,5 hPa 0,3 l/m 0,3 km/h N 13,0 C 20,0 C 4,0 km/h
10.06.2009 19:00 19,3 C 72 % 1016,6 hPa 0,0 l/m 0,1 km/h N 14,0 C 19,3 C 1,6 km/h
10.06.2009 20:00 18,5 C 76 % 1016,5 hPa 0,0 l/m 0,5 km/h S-SO 14,2 C 18,5 C 5,2 km/h
10.06.2009 21:00 16,4 C 83 % 1016,5 hPa 0,0 l/m 0,1 km/h N 13,6 C 16,4 C 3,6 km/h
10.06.2009 22:00 14,9 C 84 % 1016,3 hPa 0,0 l/m 0,0 km/h N 12,2 C 14,9 C 0,8 km/h
10.06.2009 23:00 13,8 C 87 % 1016,0 hPa 0,0 l/m 0,1 km/h N 11,7 C 13,8 C 2,0 km/h
11.06.2009 00:00 13,2 C 88 % 1015,7 hPa 0,0 l/m 0,1 km/h N 11,2 C 13,2 C 2,8 km/h
11.06.2009 01:00 12,6 C 87 % 1015,3 hPa 0,0 l/m 0,0 km/h N 10,6 C 12,6 C 1,2 km/h
11.06.2009 02:00 12,0 C 87 % 1015,2 hPa 0,0 l/m 0,1 km/h N 9,9 C 12,0 C 2,4 km/h
11.06.2009 03:00 11,3 C 88 % 1015,0 hPa 0,0 l/m 0,1 km/h N 9,4 C 11,3 C 2,0 km/h
11.06.2009 04:00 10,8 C 89 % 1014,5 hPa 0,0 l/m 0,0 km/h N 9,0 C 10,8 C 0,8 km/h
11.06.2009 05:00 10,2 C 90 % 1014,5 hPa 0,0 l/m 0,0 km/h N 8,6 C 10,2 C 0,0 km/h
11.06.2009 06:00 12,3 C 86 % 1013,8 hPa 0,0 l/m 0,0 km/h N 9,9 C 12,3 C 0,4 km/h
11.06.2009 07:00 14,5 C 82 % 1012,9 hPa 0,0 l/m 0,0 km/h N 11,5 C 14,5 C 1,2 km/h
11.06.2009 08:00 16,4 C 78 % 1012,6 hPa 0,0 l/m 0,6 km/h N 12,6 C 16,4 C 3,2 km/h
11.06.2009 09:00 17,9 C 75 % 1012,3 hPa 0,0 l/m 0,3 km/h N 13,4 C 17,9 C 3,2 km/h
11.06.2009 10:00 20,1 C 70 % 1012,1 hPa 0,0 l/m 1,0 km/h N 14,5 C 20,1 C 4,8 km/h
11.06.2009 11:00 20,9 C 66 % 1011,9 hPa 0,0 l/m 0,5 km/h NO 14,4 C 20,9 C 3,2 km/h
11.06.2009 12:00 21,3 C 64 % 1013,0 hPa 0,0 l/m 4,2 km/h N-NW 14,2 C 21,2 C 14,5 km/h
11.06.2009 13:00 20,2 C 64 % 1013,2 hPa 0,0 l/m 6,0 km/h NW 13,1 C 20,1 C 17,7 km/h
11.06.2009 14:00 20,8 C 55 % 1012,5 hPa 0,0 l/m 5,2 km/h S-SW 11,3 C 20,8 C 19,7 km/h
11.06.2009 15:00 19,5 C 59 % 1013,7 hPa 0,0 l/m 5,8 km/h N-NO 11,1 C 19,5 C 25,3 km/h
11.06.2009 16:00 17,7 C 71 % 1014,2 hPa 0,6 l/m 2,0 km/h S 12,4 C 17,7 C 10,9 km/h
11.06.2009 17:00 17,7 C 73 % 1014,4 hPa 0,0 l/m 0,3 km/h N 12,8 C 17,7 C 3,2 km/h
11.06.2009 18:00 19,1 C 59 % 1013,9 hPa 0,0 l/m 1,3 km/h SO 10,9 C 19,1 C 8,1 km/h
11.06.2009 19:00 18,8 C 59 % 1013,7 hPa 0,0 l/m 1,7 km/h S-SO 10,7 C 18,8 C 7,3 km/h
11.06.2009 20:00 18,6 C 57 % 1014,3 hPa 0,0 l/m 3,2 km/h O-SO 9,9 C 18,6 C 14,9 km/h
11.06.2009 21:00 17,7 C 61 % 1015,1 hPa 0,3 l/m 3,3 km/h N-NO 10,0 C 17,7 C 14,5 km/h
11.06.2009 22:00 15,8 C 69 % 1016,0 hPa 0,0 l/m 1,1 km/h N 10,1 C 15,8 C 5,2 km/h
11.06.2009 23:00 14,9 C 67 % 1016,5 hPa 0,0 l/m 1,7 km/h NW 8,9 C 14,9 C 5,2 km/h
12.06.2009 00:00 14,9 C 63 % 1016,6 hPa 0,0 l/m 1,4 km/h NO 7,9 C 14,9 C 8,0 km/h
12.06.2009 01:00 15,8 C 56 % 1016,7 hPa 0,0 l/m 3,8 km/h O-SO 7,2 C 15,8 C 16,9 km/h
12.06.2009 02:00 15,4 C 55 % 1016,6 hPa 0,0 l/m 4,8 km/h S-SO 6,5 C 15,4 C 20,5 km/h
12.06.2009 03:00 15,1 C 58 % 1016,9 hPa 0,0 l/m 6,6 km/h S 6,9 C 14,8 C 29,7 km/h
12.06.2009 04:00 14,8 C 60 % 1016,7 hPa 0,0 l/m 5,9 km/h W 7,1 C 14,6 C 23,8 km/h
12.06.2009 05:00 14,6 C 62 % 1016,8 hPa 0,0 l/m 4,5 km/h W-SW 7,3 C 14,6 C 18,1 km/h
12.06.2009 06:00 14,9 C 61 % 1017,2 hPa 0,0 l/m 6,9 km/h O-SO 7,5 C 14,5 C 26,6 km/h
12.06.2009 07:00 15,3 C 59 % 1017,8 hPa 0,0 l/m 8,4 km/h W-NW 7,4 C 14,2 C 30,2 km/h
12.06.2009 08:00 15,7 C 59 % 1018,3 hPa 0,0 l/m 6,9 km/h N-NW 7,7 C 15,4 C 22,5 km/h
12.06.2009 09:00 16,4 C 56 % 1018,4 hPa 0,0 l/m 7,0 km/h N-NO 7,7 C 16,0 C 22,5 km/h
12.06.2009 10:00 17,8 C 50 % 1018,0 hPa 0,0 l/m 9,3 km/h N-NW 7,1 C 16,5 C 32,2 km/h
12.06.2009 11:00 18,9 C 46 % 1017,7 hPa 0,0 l/m 8,4 km/h SW 7,0 C 18,1 C 30,6 km/h
12.06.2009 12:00 19,9 C 44 % 1017,2 hPa 0,0 l/m 7,8 km/h W-SW 7,4 C 19,3 C 26,5 km/h
12.06.2009 13:00 19,4 C 44 % 1017,1 hPa 0,0 l/m 8,4 km/h W 6,9 C 18,6 C 32,2 km/h
12.06.2009 14:00 19,9 C 42 % 1016,6 hPa 0,0 l/m 8,2 km/h N-NW 6,5 C 19,2 C 25,4 km/h
12.06.2009 15:00 21,4 C 35 % 1015,9 hPa 0,0 l/m 7,7 km/h NW 5,0 C 21,0 C 25,3 km/h
12.06.2009 16:00 21,8 C 32 % 1015,9 hPa 0,0 l/m 8,3 km/h W-NW 4,5 C 21,2 C 28,6 km/h
12.06.2009 17:00 18,8 C 49 % 1016,3 hPa 0,0 l/m 5,0 km/h NO 7,6 C 18,7 C 16,5 km/h
12.06.2009 18:00 18,3 C 53 % 1016,3 hPa 0,0 l/m 2,0 km/h N-NW 8,5 C 18,3 C 8,0 km/h
12.06.2009 19:00 17,7 C 52 % 1016,7 hPa 0,0 l/m 2,9 km/h N-NO 7,7 C 17,7 C 9,3 km/h
12.06.2009 20:00 16,1 C 61 % 1017,2 hPa 0,0 l/m 1,7 km/h N-NO 8,5 C 16,1 C 5,2 km/h
12.06.2009 21:00 14,2 C 73 % 1017,7 hPa 0,0 l/m 0,0 km/h N 9,5 C 14,2 C 1,2 km/h
12.06.2009 22:00 13,1 C 79 % 1018,1 hPa 0,0 l/m 0,1 km/h N 9,5 C 13,1 C 0,8 km/h
12.06.2009 23:00 11,9 C 83 % 1018,7 hPa 0,0 l/m 0,1 km/h N 9,2 C 11,9 C 0,8 km/h
13.06.2009 00:00 12,8 C 78 % 1019,8 hPa 0,0 l/m 2,0 km/h N-NO 9,0 C 12,8 C 5,6 km/h
13.06.2009 01:00 12,1 C 73 % 1020,4 hPa 0,0 l/m 1,4 km/h N-NW 7,3 C 12,1 C 6,4 km/h
13.06.2009 02:00 11,5 C 75 % 1020,3 hPa 0,0 l/m 0,6 km/h N 7,2 C 11,5 C 2,8 km/h
13.06.2009 03:00 11,3 C 72 % 1020,0 hPa 0,0 l/m 0,9 km/h S-SW 6,5 C 11,3 C 6,4 km/h
13.06.2009 04:00 10,1 C 79 % 1020,1 hPa 0,0 l/m 1,1 km/h S-SW 6,6 C 10,1 C 4,8 km/h
13.06.2009 05:00 9,4 C 81 % 1020,3 hPa 0,0 l/m 0,1 km/h N 6,2 C 9,4 C 2,0 km/h
13.06.2009 06:00 10,6 C 77 % 1020,1 hPa 0,0 l/m 0,3 km/h N 6,7 C 10,6 C 2,8 km/h
13.06.2009 07:00 13,0 C 67 % 1020,0 hPa 0,0 l/m 0,9 km/h S 6,9 C 13,0 C 5,6 km/h
13.06.2009 08:00 14,8 C 63 % 1020,0 hPa 0,0 l/m 2,7 km/h N-NW 7,8 C 14,8 C 9,3 km/h
13.06.2009 09:00 16,5 C 53 % 1019,9 hPa 0,0 l/m 6,2 km/h N-NW 6,8 C 16,1 C 17,3 km/h
13.06.2009 10:00 18,2 C 47 % 1019,7 hPa 0,0 l/m 5,7 km/h SW 6,8 C 18,1 C 20,5 km/h
13.06.2009 11:00 19,9 C 41 % 1019,4 hPa 0,0 l/m 6,3 km/h S 6,3 C 19,9 C 22,5 km/h
13.06.2009 12:00 21,0 C 38 % 1019,1 hPa 0,0 l/m 6,3 km/h SW 6,1 C 20,9 C 23,7 km/h
13.06.2009 13:00 22,0 C 36 % 1018,9 hPa 0,0 l/m 6,9 km/h O 6,3 C 21,9 C 23,7 km/h
13.06.2009 14:00 22,7 C 33 % 1018,7 hPa 0,0 l/m 7,5 km/h SW 5,7 C 22,3 C 28,2 km/h
13.06.2009 15:00 23,0 C 32 % 1018,7 hPa 0,0 l/m 7,7 km/h S-SO 5,4 C 22,6 C 24,1 km/h
13.06.2009 16:00 23,0 C 31 % 1018,5 hPa 0,0 l/m 7,6 km/h W-SW 5,1 C 22,6 C 24,1 km/h
13.06.2009 17:00 22,8 C 33 % 1018,4 hPa 0,0 l/m 7,0 km/h NW 5,5 C 22,5 C 24,5 km/h
13.06.2009 18:00 22,2 C 33 % 1018,2 hPa 0,0 l/m 5,9 km/h W 5,3 C 22,1 C 23,4 km/h
13.06.2009 19:00 21,6 C 34 % 1018,0 hPa 0,0 l/m 4,1 km/h S-SO 5,2 C 21,6 C 18,1 km/h
13.06.2009 20:00 20,3 C 37 % 1018,1 hPa 0,0 l/m 2,4 km/h S-SO 5,2 C 20,3 C 13,3 km/h
13.06.2009 21:00 19,2 C 41 % 1018,3 hPa 0,0 l/m 1,6 km/h O 5,6 C 19,2 C 8,4 km/h
13.06.2009 22:00 18,5 C 44 % 1018,3 hPa 0,0 l/m 1,1 km/h SW 6,0 C 18,5 C 8,0 km/h
13.06.2009 23:00 17,6 C 48 % 1018,5 hPa 0,0 l/m 0,6 km/h N 6,3 C 17,6 C 4,0 km/h
14.06.2009 00:00 14,1 C 63 % 1018,9 hPa 0,0 l/m 0,0 km/h N 7,1 C 14,1 C 1,2 km/h
14.06.2009 01:00 14,6 C 61 % 1018,9 hPa 0,0 l/m 0,0 km/h N 7,1 C 14,6 C 1,2 km/h
14.06.2009 02:00 13,8 C 63 % 1019,1 hPa 0,0 l/m 0,1 km/h N 6,7 C 13,8 C 1,2 km/h
14.06.2009 03:00 12,3 C 70 % 1019,3 hPa 0,0 l/m 0,0 km/h N 7,0 C 12,3 C 0,0 km/h
14.06.2009 04:00 12,0 C 72 % 1019,6 hPa 0,0 l/m 0,2 km/h N 6,9 C 12,0 C 1,2 km/h
14.06.2009 05:00 13,7 C 64 % 1020,0 hPa 0,0 l/m 0,1 km/h N 7,0 C 13,7 C 1,6 km/h
14.06.2009 06:00 15,4 C 61 % 1020,3 hPa 0,0 l/m 0,1 km/h N 7,9 C 15,4 C 1,6 km/h
14.06.2009 07:00 16,4 C 62 % 1020,7 hPa 0,0 l/m 0,1 km/h W-NW 8,9 C 16,4 C 1,6 km/h
14.06.2009 08:00 18,4 C 49 % 1020,9 hPa 0,0 l/m 3,0 km/h N-NW 7,5 C 18,4 C 9,7 km/h
14.06.2009 09:00 19,5 C 48 % 1020,9 hPa 0,0 l/m 4,4 km/h NW 8,1 C 19,5 C 10,5 km/h
14.06.2009 10:00 21,1 C 44 % 1020,7 hPa 0,0 l/m 5,1 km/h N-NW 8,2 C 21,1 C 13,3 km/h
14.06.2009 11:00 23,0 C 43 % 1020,5 hPa 0,0 l/m 4,8 km/h N-NO 9,6 C 23,0 C 15,7 km/h
14.06.2009 12:00 24,4 C 39 % 1020,2 hPa 0,0 l/m 5,2 km/h NW 9,7 C 24,4 C 17,3 km/h
14.06.2009 13:00 25,6 C 37 % 1019,4 hPa 0,0 l/m 6,3 km/h N-NW 9,9 C 25,5 C 16,1 km/h
14.06.2009 14:00 26,4 C 37 % 1018,8 hPa 0,0 l/m 6,5 km/h S-SW 10,5 C 26,3 C 16,9 km/h
14.06.2009 15:00 27,7 C 36 % 1018,2 hPa 0,0 l/m 5,4 km/h O-SO 11,0 C 27,7 C 17,7 km/h
14.06.2009 16:00 27,6 C 38 % 1017,8 hPa 0,0 l/m 3,7 km/h S-SO 11,8 C 27,6 C 12,5 km/h
14.06.2009 17:00 27,4 C 38 % 1017,4 hPa 0,0 l/m 2,5 km/h O-SO 11,8 C 27,4 C 12,1 km/h
14.06.2009 18:00 26,4 C 43 % 1017,0 hPa 0,0 l/m 2,6 km/h W-SW 12,8 C 26,4 C 10,5 km/h
14.06.2009 19:00 25,7 C 46 % 1016,5 hPa 0,0 l/m 1,6 km/h O-SO 13,0 C 25,7 C 8,4 km/h
14.06.2009 20:00 24,5 C 50 % 1016,3 hPa 0,0 l/m 1,3 km/h S 13,2 C 24,5 C 6,4 km/h
14.06.2009 21:00 20,5 C 65 % 1016,5 hPa 0,0 l/m 0,1 km/h N 13,7 C 20,5 C 1,2 km/h
14.06.2009 22:00 19,4 C 70 % 1016,6 hPa 0,0 l/m 0,1 km/h N 13,7 C 19,4 C 2,0 km/h
14.06.2009 23:00 19,9 C 68 % 1016,7 hPa 0,0 l/m 0,8 km/h S-SO 13,7 C 19,9 C 6,8 km/h
Min-Datum _ 13.06.09 13.06.09 09.06.09 - 08.06.09 - 12.06.09 13.06.09 08.06.09
_ Min-Zeit 05:15 16:45 13:45 - 00:00 - 17:00 05:00 00:00
Minimum _ 8,9 C 30 % 1007,4 hPa - 0,0 km/h - 3,8 C 8,9 C 0,0 km/h
Max-Datum _ 09.06.09 08.06.09 14.06.09 10.06.09 12.06.09 - 09.06.09 09.06.09 12.06.09
_ Max-Zeit 13:45 03:00 08:30 09:45 10:45 - 12:45 13:45 13:15
Maximum _ 29,9 C 93 % 1021,0 hPa 0,6 l/m 11,5 km/h
N-NW
- 15,3 C 29,5 C 41,8 km/h
S-SW
Durchschnitt _ 18,5 C 61 % 1015,0 hPa #2,2 l/m 2,3 km/h N-NW 10,3 C 18,4 C 9,4 km/h